F/V Annytia — FMET — position and weather

sailwx.info

Track history (hours):
 
Tides and Currents Weather Stations Pressure Air Temp Water Temp Dewpoint Dewpoint Depression Visibility Wind Speed Wind Dir Waves Ship Positions

F/V Annytia

Last reported at 2018-May-25 18:36 UTC. Time now 2018-May-25 22:40 UTC.
Position N 47°32' W 005°16'.

Length 17 m.

Type: Fishing. MMSI: 228215700.

Date/timePositionNaut miles runAvg speedWind from/ knotsBaromVisibWave heightAir tempDewpointWater temp
2018-May-25 18:36N 47°32' W 005°16'1 3.2
2018-May-25 18:17N 47°33' W 005°16'1 3.0
2018-May-25 17:51N 47°35' W 005°16'1 3.0
2018-May-25 17:30N 47°36' W 005°16'2 2.1
2018-May-25 16:36N 47°34' W 005°16'0 0.8
2018-May-25 16:25N 47°34' W 005°16'1 1.5
2018-May-25 15:43N 47°33' W 005°18'1 2.4
2018-May-25 15:30N 47°33' W 005°18'1 0.9
2018-May-25 14:17N 47°33' W 005°17'1 3.6
2018-May-25 13:59N 47°34' W 005°17'3 0.7
2018-May-25 10:22N 47°33' W 005°20'9 0.7
2018-May-24 20:59N 47°41' W 005°12'2 3.1
2018-May-24 20:26N 47°41' W 005°10'40 0.9
2018-May-23 01:51N 47°08' W 004°36'2 3.7
2018-May-23 01:25N 47°10' W 004°35'2 3.7
2018-May-23 00:57N 47°11' W 004°35'3 3.6
2018-May-23 00:15N 47°13' W 004°33'2 6.9
2018-May-22 23:54N 47°15' W 004°30'4 9.5
2018-May-22 23:30N 47°17' W 004°25'7 9.1
2018-May-22 22:47N 47°20' W 004°17'3 8.5
2018-May-22 22:23N 47°22' W 004°13'5 9.0
2018-May-22 21:50N 47°25' W 004°07'6 8.6
2018-May-22 21:08N 47°28' W 003°59'2 8.8
2018-May-22 20:51N 47°29' W 003°56'3 8.7
2018-May-22 20:30N 47°30' W 003°52'4 9.0
2018-May-22 20:00N 47°33' W 003°46'5 9.3
2018-May-22 19:30N 47°35' W 003°40'5 9.7
2018-May-22 19:00N 47°38' W 003°34'5 9.3
2018-May-22 18:30N 47°40' W 003°28'5 9.2
2018-May-22 18:00N 47°42' W 003°22'2 3.1
2018-May-22 17:30N 47°44' W 003°22'0 0.0
2018-May-22 17:00N 47°44' W 003°22'0 0.0
2018-May-22 16:30N 47°44' W 003°22'2 3.4
2018-May-22 16:00N 47°42' W 003°22'5 9.2
2018-May-22 15:30N 47°40' W 003°28'5 9.5
2018-May-22 15:00N 47°38' W 003°35'5 9.6
2018-May-22 14:30N 47°36' W 003°41'5 9.1
2018-May-22 14:00N 47°33' W 003°47'0 0.7
2018-May-22 13:30N 47°33' W 003°47'0 0.3
2018-May-22 13:00N 47°33' W 003°47'2 3.8
2018-May-22 12:30N 47°32' W 003°49'2 3.8
2018-May-22 12:00N 47°33' W 003°47'5 9.3
2018-May-22 11:30N 47°35' W 003°41'5 9.2
2018-May-22 11:00N 47°38' W 003°35'5 9.3
2018-May-22 10:30N 47°40' W 003°29'5 9.2
2018-May-22 10:00N 47°42' W 003°23'2 4.2
2018-May-22 09:30N 47°44' W 003°22'  
2018-May-17 16:12N 47°44' W 003°22'0 0.2
2018-May-17 16:00N 47°44' W 003°22'0 0.1
2018-May-17 15:30N 47°44' W 003°22'0 0.0
2018-May-17 15:00N 47°44' W 003°22'0 0.0
2018-May-17 14:30N 47°44' W 003°22'0 0.0
2018-May-17 14:00N 47°44' W 003°22'1 2.6
2018-May-17 13:30N 47°42' W 003°22'5 9.5
2018-May-17 13:00N 47°40' W 003°28'5 9.9
2018-May-17 12:30N 47°39' W 003°35'5 9.5
2018-May-17 12:00N 47°37' W 003°42'5 9.7
2018-May-17 11:30N 47°36' W 003°49'11 9.4
2018-May-17 10:21N 47°33' W 004°04'36 1.2
2018-May-16 03:33N 47°18' W 004°53'0 2.6
2018-May-16 03:27N 47°18' W 004°53'1 2.7
2018-May-16 02:58N 47°17' W 004°52'4 3.0
2018-May-16 01:39N 47°13' W 004°51'1 3.2
2018-May-16 01:26N 47°12' W 004°51'1 2.7
2018-May-16 00:55N 47°11' W 004°49'2 3.4
2018-May-16 00:18N 47°11' W 004°46'2 5.4
2018-May-15 23:52N 47°11' W 004°43'1 1.8
2018-May-15 23:26N 47°10' W 004°42'2 2.9
2018-May-15 22:54N 47°10' W 004°40'1 2.9
2018-May-15 22:29N 47°10' W 004°38'1 3.0
2018-May-15 22:00N 47°10' W 004°36'  
Track history (hours):
 
Tides and Currents Weather Stations Pressure Air Temp Water Temp Dewpoint Dewpoint Depression Visibility Wind Speed Wind Dir Waves Ship Positions

F/V Annytia

Last reported at 2018-May-25 18:36 UTC. Time now 2018-May-25 22:40 UTC.
Position N 47°32' W 005°16'.

Length 17 m.

Type: Fishing. MMSI: 228215700.

Date/timePositionNaut miles runAvg speedWind from/ knotsBaromVisibWave heightAir tempDewpointWater temp
2018-May-25 18:36N 47°32' W 005°16'1 3.2
2018-May-25 18:17N 47°33' W 005°16'1 3.0
2018-May-25 17:51N 47°35' W 005°16'1 3.0
2018-May-25 17:30N 47°36' W 005°16'2 2.1
2018-May-25 16:36N 47°34' W 005°16'0 0.8
2018-May-25 16:25N 47°34' W 005°16'1 1.5
2018-May-25 15:43N 47°33' W 005°18'1 2.4
2018-May-25 15:30N 47°33' W 005°18'1 0.9
2018-May-25 14:17N 47°33' W 005°17'1 3.6
2018-May-25 13:59N 47°34' W 005°17'3 0.7
2018-May-25 10:22N 47°33' W 005°20'9 0.7
2018-May-24 20:59N 47°41' W 005°12'2 3.1
2018-May-24 20:26N 47°41' W 005°10'40 0.9
2018-May-23 01:51N 47°08' W 004°36'2 3.7
2018-May-23 01:25N 47°10' W 004°35'2 3.7
2018-May-23 00:57N 47°11' W 004°35'3 3.6
2018-May-23 00:15N 47°13' W 004°33'2 6.9
2018-May-22 23:54N 47°15' W 004°30'4 9.5
2018-May-22 23:30N 47°17' W 004°25'7 9.1
2018-May-22 22:47N 47°20' W 004°17'3 8.5
2018-May-22 22:23N 47°22' W 004°13'5 9.0
2018-May-22 21:50N 47°25' W 004°07'6 8.6
2018-May-22 21:08N 47°28' W 003°59'2 8.8
2018-May-22 20:51N 47°29' W 003°56'3 8.7
2018-May-22 20:30N 47°30' W 003°52'4 9.0
2018-May-22 20:00N 47°33' W 003°46'5 9.3
2018-May-22 19:30N 47°35' W 003°40'5 9.7
2018-May-22 19:00N 47°38' W 003°34'5 9.3
2018-May-22 18:30N 47°40' W 003°28'5 9.2
2018-May-22 18:00N 47°42' W 003°22'2 3.1
2018-May-22 17:30N 47°44' W 003°22'0 0.0
2018-May-22 17:00N 47°44' W 003°22'0 0.0
2018-May-22 16:30N 47°44' W 003°22'2 3.4
2018-May-22 16:00N 47°42' W 003°22'5 9.2
2018-May-22 15:30N 47°40' W 003°28'5 9.5
2018-May-22 15:00N 47°38' W 003°35'5 9.6
2018-May-22 14:30N 47°36' W 003°41'5 9.1
2018-May-22 14:00N 47°33' W 003°47'0 0.7
2018-May-22 13:30N 47°33' W 003°47'0 0.3
2018-May-22 13:00N 47°33' W 003°47'2 3.8
2018-May-22 12:30N 47°32' W 003°49'2 3.8
2018-May-22 12:00N 47°33' W 003°47'5 9.3
2018-May-22 11:30N 47°35' W 003°41'5 9.2
2018-May-22 11:00N 47°38' W 003°35'5 9.3
2018-May-22 10:30N 47°40' W 003°29'5 9.2
2018-May-22 10:00N 47°42' W 003°23'2 4.2
2018-May-22 09:30N 47°44' W 003°22'  
2018-May-17 16:12N 47°44' W 003°22'0 0.2
2018-May-17 16:00N 47°44' W 003°22'0 0.1
2018-May-17 15:30N 47°44' W 003°22'0 0.0
2018-May-17 15:00N 47°44' W 003°22'0 0.0
2018-May-17 14:30N 47°44' W 003°22'0 0.0
2018-May-17 14:00N 47°44' W 003°22'1 2.6
2018-May-17 13:30N 47°42' W 003°22'5 9.5
2018-May-17 13:00N 47°40' W 003°28'5 9.9
2018-May-17 12:30N 47°39' W 003°35'5 9.5
2018-May-17 12:00N 47°37' W 003°42'5 9.7
2018-May-17 11:30N 47°36' W 003°49'11 9.4
2018-May-17 10:21N 47°33' W 004°04'36 1.2
2018-May-16 03:33N 47°18' W 004°53'0 2.6
2018-May-16 03:27N 47°18' W 004°53'1 2.7
2018-May-16 02:58N 47°17' W 004°52'4 3.0
2018-May-16 01:39N 47°13' W 004°51'1 3.2
2018-May-16 01:26N 47°12' W 004°51'1 2.7
2018-May-16 00:55N 47°11' W 004°49'2 3.4
2018-May-16 00:18N 47°11' W 004°46'2 5.4
2018-May-15 23:52N 47°11' W 004°43'1 1.8
2018-May-15 23:26N 47°10' W 004°42'2 2.9
2018-May-15 22:54N 47°10' W 004°40'1 2.9
2018-May-15 22:29N 47°10' W 004°38'1 3.0
2018-May-15 22:00N 47°10' W 004°36'  

Dump ship's entire track history